ワシントン/ダレス の空港の天気 - METARとTAF

ワシントン・ダレス国際空港 ( KIAD / IAD ) - アメリカ バージニア州ダレス
飛行場実況気象(Metar)
観測時間06/24 05:52 EDT (06/24 09:52 UTC)
風向・風速南 2m/s
視程10km以上
天気現象
少しの雲 雲底高度 4570m
全天の4割程度の雲 雲底高度 7010m
全天の8割程度の雲 雲底高度 7620m
気温18.9℃
湿度78%
気圧1012.1hPa
METARKIAD 240952Z 18003KT 10SM FEW150 SCT230 BKN250 19/15 A2990 RMK AO2 SLP121 T01890150
過去の天気等 Google飛行場航空写真 Wunderground天気予報

過去48時間のMETAR

飛行場予報(TAF)
発表時間: 6/24 04:33 EDT (6/24 08:33 UTC)
予報対象時間: 24日5時 EDT ~ 25日8時 EDT
風向・風速南 3m/s
視程10km以上
少しの雲 雲底高度 4570m
24日14時 EDT から
風向・風速南南西 3m/s
視程10km以上
天気現象弱いしゅう雨 周辺で雷
全天の8割程度の積乱雲 雲底高度 1830m
24日17時 EDT から
風向・風速南 3m/s
視程10km以上
全天の8割程度の雲 雲底高度 3050m
24日23時 EDT から
風向・風速南 4m/s
視程10km以上
天気現象弱いしゅう雨
全天を覆う雲 雲底高度 1370m
25日2時 EDT から
風向・風速南 3m/s
視程10km以上
全天の8割程度の雲 雲底高度 1520m
KIAD 240833Z 2409/2512 18005KT P6SM FEW150
FM241800 20006KT 6SM -SHRA VCTS BKN060CB
FM242100 19006KT P6SM BKN100
FM250300 18007KT 6SM -SHRA OVC045
FM250600 19005KT P6SM BKN050